CheckWX is a tool to help pilots better visualize weather data.  It is not intended as a substitute for an official pre-flight weather briefing.

14:47:55 UTC

KOLS TAF
Nogales International Airport
Nogales, Arizona, USA
KOLS 231127Z 2312/2412 VRB04KT P6SM SCT250 FM232100 25010G16KT P6SM FEW250 FM240300 11004KT P6SM SCT250

Mar-23@
12:00 UTC

Mar-23 @ 12:00 UTC

Mar-23@
21:00 UTC

Mar-23 @ 21:00 UTC

KOLS 231127Z 2312/2412 VRB04KT P6SM SCT250
Wind
  • Variable at 4 KTS
Cloud Levels
  • Scattered at 25,000' AGL

Mar-23@
21:00 UTC

Mar-23 @ 21:00 UTC

Mar-24@
03:00 UTC

Mar-24 @ 03:00 UTC

FM232100 25010G16KT P6SM FEW250

From

From Standard forecast or significant change

Wind
  • 250° at 10 KTS
  • {Gusting to 16 KTS
Cloud Levels
  • Few at 25,000' AGL

Mar-24@
03:00 UTC

Mar-24 @ 03:00 UTC

Mar-24@
12:00 UTC

Mar-24 @ 12:00 UTC

FM240300 11004KT P6SM SCT250

From

From Standard forecast or significant change

Wind
  • 110° at 4 KTS
Cloud Levels
  • Scattered at 25,000' AGL